Helena, Montana
Current Conditions -  °F | °C
As of 1:53 PM on Monday 22 Dec 2014 (Local Time) from KHLN Reporting Station
Overcast Overcast  
Wind Chill: 32°   Ceiling: 7000
Heat Index: 40°   Visibility: 10mi
Dew Point: 21°   Wind: 14mph
Humidity: 47%   Direction: 270°W
Pressure: 29.95"   Gusts: NA
Location:  46.59°N, 112.02°W
Report Text: KHLN 222053Z 27012KT 10SM FEW055 OVC070 04/M06 A2995 RMK AO2 SLP171 T00441061 53012
Loading
Personal Weather Stations






























Interactive Weather Map New forecast layout! Learn more

10-Day Weather Forecast

Advertisements
Track Severe Weather on mobile